createdAt,value
2022-09-26T00:01:09.096Z,12.60
2022-09-26T00:04:21.029Z,12.60
2022-09-26T00:07:26.894Z,12.60
2022-09-26T00:10:32.194Z,12.60
2022-09-26T00:13:37.717Z,12.60
2022-09-26T00:16:42.063Z,12.60
2022-09-26T00:19:45.756Z,12.60
2022-09-26T00:22:49.362Z,12.50
2022-09-26T00:25:54.893Z,12.50
2022-09-26T00:28:59.391Z,12.50
2022-09-26T00:32:03.286Z,12.50
2022-09-26T00:35:08.278Z,12.50
2022-09-26T00:38:12.238Z,12.50
2022-09-26T00:41:18.154Z,12.50
2022-09-26T00:44:45.357Z,12.50
2022-09-26T00:47:57.450Z,12.50
2022-09-26T00:51:01.985Z,12.40
2022-09-26T00:54:07.908Z,12.40
2022-09-26T00:57:17.144Z,12.40
2022-09-26T01:00:23.033Z,12.40
2022-09-26T01:03:28.385Z,12.40
2022-09-26T01:06:34.433Z,12.40
2022-09-26T01:09:39.341Z,12.40
2022-09-26T01:12:45.342Z,12.30
2022-09-26T01:15:49.142Z,12.40
2022-09-26T01:18:52.846Z,12.40
2022-09-26T01:22:24.497Z,12.40
2022-09-26T01:25:45.915Z,12.40
2022-09-26T01:29:12.710Z,12.40
2022-09-26T01:32:45.861Z,12.40
2022-09-26T01:36:17.619Z,12.40
2022-09-26T01:39:33.042Z,12.40
2022-09-26T01:42:43.445Z,12.40
2022-09-26T01:45:53.389Z,12.40
2022-09-26T01:49:09.848Z,12.40
2022-09-26T01:52:20.892Z,12.40
2022-09-26T01:55:29.862Z,12.40
2022-09-26T01:58:38.194Z,12.40
2022-09-26T02:01:46.109Z,12.40
2022-09-26T02:04:56.197Z,12.40
2022-09-26T02:08:06.309Z,12.40
2022-09-26T02:11:14.557Z,12.40
2022-09-26T02:14:23.232Z,12.40
2022-09-26T02:17:31.868Z,12.50
2022-09-26T02:20:43.010Z,12.50
2022-09-26T02:23:47.895Z,12.50
2022-09-26T02:26:52.850Z,12.50
2022-09-26T02:29:57.070Z,12.50
2022-09-26T02:33:00.931Z,12.50
2022-09-26T02:36:09.669Z,12.50
2022-09-26T02:39:13.472Z,12.50
2022-09-26T02:42:35.849Z,12.50
2022-09-26T02:45:45.282Z,12.50
2022-09-26T02:49:00.369Z,12.50
2022-09-26T02:52:21.138Z,12.50
2022-09-26T02:55:32.403Z,12.50
2022-09-26T02:58:48.498Z,12.50
2022-09-26T03:01:56.350Z,12.50
2022-09-26T03:05:04.781Z,12.50
2022-09-26T03:08:14.677Z,12.50
2022-09-26T03:11:22.659Z,12.50
2022-09-26T03:14:26.417Z,12.50
2022-09-26T03:17:30.564Z,12.50
2022-09-26T03:20:35.512Z,12.50
2022-09-26T03:23:41.147Z,12.50
2022-09-26T03:26:46.683Z,12.50
2022-09-26T03:29:50.942Z,12.50
2022-09-26T03:32:58.822Z,12.50
2022-09-26T03:36:06.321Z,12.50
2022-09-26T03:39:11.973Z,12.50
2022-09-26T03:42:23.890Z,12.50
2022-09-26T03:45:29.465Z,12.50
2022-09-26T03:48:40.965Z,12.50
2022-09-26T03:51:45.330Z,12.50
2022-09-26T03:54:50.908Z,12.50
2022-09-26T03:57:54.557Z,12.50
2022-09-26T04:01:07.431Z,12.50
2022-09-26T04:04:11.422Z,12.50
2022-09-26T04:07:16.436Z,12.50
2022-09-26T04:10:23.611Z,12.50
2022-09-26T04:13:49.924Z,12.50
2022-09-26T04:16:51.583Z,12.50
2022-09-26T04:20:03.398Z,12.50
2022-09-26T04:23:08.343Z,12.40
2022-09-26T04:26:20.323Z,12.40
2022-09-26T04:29:26.588Z,12.40
2022-09-26T04:32:37.151Z,12.40
2022-09-26T04:36:01.794Z,12.40
2022-09-26T04:39:06.556Z,12.40
2022-09-26T04:42:13.065Z,12.40
2022-09-26T04:45:17.761Z,12.40
2022-09-26T04:48:21.679Z,12.40
2022-09-26T04:51:51.466Z,12.30
2022-09-26T04:54:55.857Z,12.30
2022-09-26T04:58:03.154Z,12.30
2022-09-26T05:01:09.535Z,12.30
2022-09-26T05:04:33.593Z,12.30
2022-09-26T05:07:41.487Z,12.30
2022-09-26T05:10:45.896Z,12.20
2022-09-26T05:13:53.707Z,12.20
2022-09-26T05:16:58.092Z,12.20
2022-09-26T05:20:01.819Z,12.20
2022-09-26T05:23:44.619Z,12.20
2022-09-26T05:26:50.179Z,12.20
2022-09-26T05:29:57.225Z,12.10
2022-09-26T05:33:02.189Z,12.20
2022-09-26T05:36:07.531Z,12.10
2022-09-26T05:39:31.709Z,12.10
2022-09-26T05:42:33.634Z,12.10
2022-09-26T05:45:39.307Z,12.10
2022-09-26T05:48:44.799Z,12.10
2022-09-26T05:51:53.983Z,12.00
2022-09-26T05:54:58.582Z,12.00
2022-09-26T05:58:20.962Z,12.00
2022-09-26T06:01:52.574Z,12.00
2022-09-26T06:05:13.930Z,12.00
2022-09-26T06:08:41.998Z,12.00
2022-09-26T06:11:57.914Z,12.00
2022-09-26T06:15:01.741Z,12.00
2022-09-26T06:18:07.362Z,12.00
2022-09-26T06:21:13.529Z,12.00
2022-09-26T06:24:19.709Z,12.00
2022-09-26T06:27:25.500Z,12.00
2022-09-26T06:30:29.199Z,12.00
2022-09-26T06:33:42.083Z,12.00
2022-09-26T06:37:08.974Z,12.00
2022-09-26T06:40:12.939Z,12.00
2022-09-26T06:43:17.581Z,12.00
2022-09-26T06:46:39.579Z,12.00
2022-09-26T06:49:52.679Z,12.00
2022-09-26T06:53:09.450Z,12.00
2022-09-26T06:56:13.813Z,12.00
2022-09-26T06:59:18.096Z,12.00
2022-09-26T07:02:52.517Z,12.00
2022-09-26T07:06:05.422Z,12.00
2022-09-26T07:09:12.226Z,12.00
2022-09-26T07:12:41.271Z,12.00
2022-09-26T07:15:47.301Z,12.00
2022-09-26T07:19:05.882Z,12.00
2022-09-26T07:22:18.083Z,12.00
2022-09-26T07:25:27.222Z,12.00
2022-09-26T07:28:30.994Z,12.00
2022-09-26T07:31:34.767Z,12.00
2022-09-26T07:34:54.721Z,12.00
2022-09-26T07:38:00.396Z,12.10
2022-09-26T07:41:04.278Z,12.10
2022-09-26T07:47:47.523Z,12.10
2022-09-26T07:51:12.079Z,12.10
2022-09-26T07:54:24.624Z,12.20
2022-09-26T07:57:49.436Z,12.20
2022-09-26T08:01:12.354Z,12.30
2022-09-26T08:04:34.439Z,12.30
2022-09-26T08:07:39.624Z,12.40
2022-09-26T08:10:52.966Z,12.50
2022-09-26T08:14:10.305Z,12.50
2022-09-26T08:17:34.315Z,12.50
2022-09-26T08:20:39.315Z,12.50
2022-09-26T08:23:43.214Z,12.60
2022-09-26T08:27:24.027Z,12.60
2022-09-26T08:30:30.828Z,12.60
2022-09-26T08:33:38.123Z,12.70
2022-09-26T08:36:41.990Z,12.70
2022-09-26T08:40:04.176Z,12.70
2022-09-26T08:43:42.797Z,12.70
2022-09-26T08:47:16.602Z,12.70
2022-09-26T08:50:49.618Z,12.70
2022-09-26T08:53:58.505Z,12.80
2022-09-26T08:57:06.963Z,12.70
2022-09-26T09:00:20.953Z,12.80
2022-09-26T09:03:45.398Z,12.80
2022-09-26T09:06:51.105Z,12.80
2022-09-26T09:10:00.981Z,12.80
2022-09-26T09:13:38.394Z,12.80
2022-09-26T09:17:24.929Z,12.80
2022-09-26T09:20:49.202Z,12.80
2022-09-26T09:24:19.648Z,12.80
2022-09-26T09:27:54.604Z,12.80
2022-09-26T09:31:02.601Z,12.90
2022-09-26T09:34:41.339Z,12.80
2022-09-26T09:38:20.967Z,12.90
2022-09-26T09:41:49.064Z,12.90
2022-09-26T09:44:57.214Z,12.90
2022-09-26T09:48:01.088Z,12.90
2022-09-26T09:51:29.771Z,12.90
2022-09-26T09:54:49.731Z,12.90
2022-09-26T09:58:16.447Z,12.90
2022-09-26T10:01:25.918Z,13.00
2022-09-26T10:04:38.014Z,13.00
2022-09-26T10:07:44.462Z,13.00
2022-09-26T10:11:23.538Z,13.00
2022-09-26T10:14:39.913Z,13.00
2022-09-26T10:17:56.047Z,13.00
2022-09-26T10:21:18.366Z,13.00
2022-09-26T10:24:38.150Z,13.00
2022-09-26T10:27:50.994Z,13.00
2022-09-26T10:30:57.126Z,13.00
2022-09-26T10:34:06.331Z,13.00
2022-09-26T10:37:31.729Z,13.00
2022-09-26T10:40:55.304Z,13.00
2022-09-26T10:44:00.332Z,13.00
2022-09-26T10:47:30.777Z,13.00
2022-09-26T10:50:59.874Z,13.00
2022-09-26T10:54:20.857Z,13.00
2022-09-26T10:57:33.496Z,13.00
2022-09-26T11:00:41.433Z,13.00
2022-09-26T11:03:55.285Z,13.10
2022-09-26T11:07:01.733Z,13.10
2022-09-26T11:10:15.225Z,13.10
2022-09-26T11:13:31.656Z,13.10
2022-09-26T11:16:54.446Z,13.10
2022-09-26T11:20:03.330Z,13.10
2022-09-26T11:23:21.773Z,13.10
2022-09-26T11:26:33.379Z,13.10
2022-09-26T11:29:44.963Z,13.10
2022-09-26T11:32:56.699Z,13.20
2022-09-26T11:36:36.518Z,13.20
2022-09-26T11:39:57.701Z,13.10
2022-09-26T11:43:14.741Z,13.10
2022-09-26T11:46:37.856Z,13.20
2022-09-26T11:50:03.941Z,13.20
2022-09-26T11:53:48.907Z,13.20
2022-09-26T11:57:01.801Z,13.20
2022-09-26T12:00:12.594Z,13.20
2022-09-26T12:03:42.836Z,13.20
2022-09-26T12:06:55.414Z,13.20
2022-09-26T12:10:15.963Z,13.20
2022-09-26T12:13:33.648Z,13.20
2022-09-26T12:16:45.995Z,13.20
2022-09-26T12:19:58.805Z,13.20
2022-09-26T12:23:13.612Z,13.20
2022-09-26T12:26:22.547Z,13.20
2022-09-26T12:29:37.798Z,13.20
2022-09-26T12:32:59.483Z,13.20
2022-09-26T12:36:18.203Z,13.20
2022-09-26T12:39:51.023Z,13.20
2022-09-26T12:43:14.163Z,13.20
2022-09-26T12:46:33.786Z,13.20
2022-09-26T12:49:58.324Z,13.20
2022-09-26T12:53:11.117Z,13.20
2022-09-26T12:56:23.558Z,13.20
2022-09-26T12:59:43.493Z,13.20
2022-09-26T13:03:11.054Z,13.30
2022-09-26T13:06:35.427Z,13.20
2022-09-26T13:09:59.284Z,13.20
2022-09-26T13:13:30.401Z,13.20
2022-09-26T13:16:42.849Z,13.30
2022-09-26T13:19:53.659Z,13.30
2022-09-26T13:23:04.164Z,13.30
2022-09-26T13:26:16.173Z,13.30
2022-09-26T13:29:25.793Z,13.30
2022-09-26T13:32:39.918Z,13.30
2022-09-26T13:35:47.163Z,13.30
2022-09-26T13:39:02.746Z,13.30
2022-09-26T13:42:16.532Z,13.30
2022-09-26T13:45:27.115Z,13.30
2022-09-26T13:48:40.489Z,13.30
2022-09-26T13:51:53.952Z,13.30
2022-09-26T13:55:01.510Z,13.30
2022-09-26T13:58:21.761Z,13.30
2022-09-26T14:01:27.028Z,13.30
2022-09-26T14:04:36.078Z,13.30
2022-09-26T14:08:06.471Z,13.30
2022-09-26T14:11:23.601Z,13.30
2022-09-26T14:14:44.019Z,13.40
2022-09-26T14:18:09.989Z,13.30
2022-09-26T14:21:23.696Z,13.40
2022-09-26T14:24:40.700Z,13.40
2022-09-26T14:27:45.499Z,13.30
2022-09-26T14:31:13.265Z,13.40
2022-09-26T14:34:24.748Z,13.40
2022-09-26T14:37:41.934Z,13.40
2022-09-26T14:40:55.732Z,13.40
2022-09-26T14:44:04.873Z,13.40
2022-09-26T14:47:16.257Z,13.40
2022-09-26T14:50:22.002Z,13.40
2022-09-26T14:53:29.750Z,13.40
2022-09-26T14:56:43.062Z,13.40
2022-09-26T14:59:46.829Z,13.40
2022-09-26T15:03:00.890Z,13.40
2022-09-26T15:06:08.293Z,13.40
2022-09-26T15:09:13.388Z,13.40
2022-09-26T15:12:22.404Z,13.40
2022-09-26T15:15:40.215Z,13.40
2022-09-26T15:18:50.150Z,13.40
2022-09-26T15:22:00.557Z,13.40
2022-09-26T15:25:09.479Z,13.30
2022-09-26T15:28:13.384Z,13.30
2022-09-26T15:31:26.391Z,13.40
2022-09-26T15:34:34.986Z,13.40
2022-09-26T15:37:38.794Z,13.40
2022-09-26T15:40:42.489Z,13.40
2022-09-26T15:43:44.320Z,13.40
2022-09-26T15:46:50.380Z,13.40
2022-09-26T15:50:08.002Z,13.40
2022-09-26T15:53:23.925Z,13.40
2022-09-26T15:56:33.274Z,13.40
2022-09-26T15:59:41.423Z,13.40
2022-09-26T16:02:45.584Z,13.40
2022-09-26T16:05:52.012Z,13.40
2022-09-26T16:09:01.838Z,13.40
2022-09-26T16:12:12.962Z,13.40
2022-09-26T16:15:21.837Z,13.40
2022-09-26T16:18:30.374Z,13.40
2022-09-26T16:21:37.062Z,13.40
2022-09-26T16:24:40.745Z,13.40
2022-09-26T16:27:44.769Z,13.40
2022-09-26T16:30:53.769Z,13.40
2022-09-26T16:34:00.499Z,13.40
2022-09-26T16:37:06.697Z,13.40
2022-09-26T16:40:19.560Z,13.50
2022-09-26T16:43:28.925Z,13.50
2022-09-26T16:46:36.815Z,13.40
2022-09-26T16:49:44.895Z,13.40
2022-09-26T16:52:50.711Z,13.40
2022-09-26T16:55:54.645Z,13.40
2022-09-26T16:59:00.345Z,13.50
2022-09-26T17:02:04.418Z,13.40
2022-09-26T17:05:16.251Z,13.50
2022-09-26T17:08:21.966Z,13.50
2022-09-26T17:11:27.323Z,13.50
2022-09-26T17:14:40.229Z,13.50
2022-09-26T17:17:44.302Z,13.50
2022-09-26T17:20:48.730Z,13.40
2022-09-26T17:23:54.291Z,13.50
2022-09-26T17:27:00.494Z,13.40
2022-09-26T17:30:08.700Z,13.50
2022-09-26T17:33:13.321Z,13.50
2022-09-26T17:36:22.579Z,13.50
2022-09-26T17:39:30.167Z,13.50
2022-09-26T17:42:33.785Z,13.50
2022-09-26T17:45:44.470Z,13.50
2022-09-26T17:48:48.122Z,13.50
2022-09-26T17:51:53.424Z,13.50
2022-09-26T17:55:03.665Z,13.50
2022-09-26T17:58:08.729Z,13.40
2022-09-26T18:01:22.509Z,13.40
2022-09-26T18:04:28.025Z,13.40
2022-09-26T18:07:36.672Z,13.50
2022-09-26T18:10:47.719Z,13.40
2022-09-26T18:13:54.748Z,13.40
2022-09-26T18:16:58.481Z,13.40
2022-09-26T18:20:02.780Z,13.40
2022-09-26T18:23:07.818Z,13.40
2022-09-26T18:26:20.949Z,13.40
2022-09-26T18:29:31.316Z,13.40
2022-09-26T18:32:40.136Z,13.40
2022-09-26T18:35:44.955Z,13.40
2022-09-26T18:38:49.019Z,13.40
2022-09-26T18:41:56.999Z,13.40
2022-09-26T18:45:03.551Z,13.40
2022-09-26T18:48:08.273Z,13.40
2022-09-26T18:51:12.857Z,13.50
2022-09-26T18:54:18.448Z,13.50
2022-09-26T18:57:52.108Z,13.50
2022-09-26T19:00:59.001Z,13.50
2022-09-26T19:04:05.448Z,13.50
2022-09-26T19:07:09.174Z,13.50
2022-09-26T19:10:16.433Z,13.50
2022-09-26T19:13:27.286Z,13.50
2022-09-26T19:16:31.218Z,13.50
2022-09-26T19:19:35.494Z,13.50
2022-09-26T19:22:39.225Z,13.50
2022-09-26T19:25:43.131Z,13.50
2022-09-26T19:28:48.845Z,13.50
2022-09-26T19:31:52.675Z,13.50
2022-09-26T19:35:00.902Z,13.50
2022-09-26T19:38:07.777Z,13.50
2022-09-26T19:41:11.579Z,13.50
2022-09-26T19:44:17.258Z,13.50
2022-09-26T19:47:24.038Z,13.40
2022-09-26T19:50:28.419Z,13.50
2022-09-26T19:53:40.343Z,13.40
2022-09-26T19:56:45.059Z,13.50
2022-09-26T19:59:51.645Z,13.50
2022-09-26T20:02:55.848Z,13.40
2022-09-26T20:05:59.646Z,13.40
2022-09-26T20:09:04.684Z,13.40
2022-09-26T20:12:08.472Z,13.40
2022-09-26T20:15:15.878Z,13.40
2022-09-26T20:18:22.512Z,13.40
2022-09-26T20:21:29.652Z,13.30
2022-09-26T20:24:36.411Z,13.30
2022-09-26T20:27:40.133Z,13.30
2022-09-26T20:30:56.096Z,13.40
2022-09-26T20:33:59.831Z,13.30
2022-09-26T20:37:04.850Z,13.30
2022-09-26T20:40:16.901Z,13.30
2022-09-26T20:43:29.241Z,13.20
2022-09-26T20:46:37.155Z,13.20
2022-09-26T20:49:46.336Z,13.20
2022-09-26T20:52:49.989Z,13.20
2022-09-26T20:55:54.477Z,13.20
2022-09-26T20:58:58.181Z,13.20
2022-09-26T21:02:17.795Z,13.20
2022-09-26T21:05:24.514Z,13.20
2022-09-26T21:08:30.232Z,13.20
2022-09-26T21:11:33.892Z,13.10
2022-09-26T21:14:37.510Z,13.10
2022-09-26T21:17:44.297Z,13.10
2022-09-26T21:20:47.945Z,13.10
2022-09-26T21:24:19.614Z,13.10
2022-09-26T21:27:29.009Z,13.10
2022-09-26T21:30:32.742Z,13.10
2022-09-26T21:33:39.462Z,13.00
2022-09-26T21:36:43.088Z,13.00
2022-09-26T21:39:47.255Z,13.00
2022-09-26T21:42:54.118Z,13.00
2022-09-26T21:45:57.826Z,13.00
2022-09-26T21:49:03.405Z,13.00
2022-09-26T21:52:11.933Z,13.00
2022-09-26T21:55:19.725Z,13.00
2022-09-26T21:58:28.381Z,12.90
2022-09-26T22:01:32.117Z,12.90
2022-09-26T22:04:37.825Z,12.90
2022-09-26T22:07:41.501Z,12.90
2022-09-26T22:10:45.112Z,12.90
2022-09-26T22:13:48.894Z,12.90
2022-09-26T22:16:53.057Z,12.90
2022-09-26T22:19:58.630Z,12.90
2022-09-26T22:23:02.273Z,12.90
2022-09-26T22:26:06.645Z,12.90
2022-09-26T22:29:10.345Z,12.90
2022-09-26T22:32:14.338Z,12.80
2022-09-26T22:35:19.873Z,12.80
2022-09-26T22:38:23.504Z,12.80
2022-09-26T22:41:27.137Z,12.80
2022-09-26T22:44:30.746Z,12.80
2022-09-26T22:47:34.373Z,12.80
2022-09-26T22:50:39.907Z,12.70
2022-09-26T22:53:44.282Z,12.80
2022-09-26T22:56:47.937Z,12.70
2022-09-26T22:59:51.580Z,12.70
2022-09-26T23:02:55.227Z,12.70
2022-09-26T23:06:01.078Z,12.70
2022-09-26T23:09:04.875Z,12.70
2022-09-26T23:12:09.529Z,12.70
2022-09-26T23:15:13.445Z,12.70
2022-09-26T23:18:17.096Z,12.70
2022-09-26T23:21:24.492Z,12.60
2022-09-26T23:24:28.197Z,12.60
2022-09-26T23:27:31.832Z,12.60
2022-09-26T23:30:35.541Z,12.60
2022-09-26T23:33:40.074Z,12.60
2022-09-26T23:36:45.682Z,12.60
2022-09-26T23:39:49.774Z,12.50
2022-09-26T23:42:53.417Z,12.50
2022-09-26T23:45:57.199Z,12.50
2022-09-26T23:49:00.907Z,12.50
2022-09-26T23:52:06.441Z,12.50
2022-09-26T23:55:11.025Z,12.40
2022-09-26T23:58:15.490Z,12.50
